sensor_id;sensor_type;location;lat;lon;timestamp;pressure;altitude;pressure_sealevel;temperature
42119;BMP280;27783;42.782;23.274;2022-09-09T00:04:32;95703.72;;;20.54
42119;BMP280;27783;42.782;23.274;2022-09-09T00:07:18;95707.13;;;20.54
42119;BMP280;27783;42.782;23.274;2022-09-09T00:12:50;95712.00;;;20.47
42119;BMP280;27783;42.782;23.274;2022-09-09T00:15:20;95718.78;;;20.39
42119;BMP280;27783;42.782;23.274;2022-09-09T00:17:55;95706.59;;;20.38
42119;BMP280;27783;42.782;23.274;2022-09-09T00:20:33;95698.56;;;20.38
42119;BMP280;27783;42.782;23.274;2022-09-09T00:23:12;95692.63;;;20.43
42119;BMP280;27783;42.782;23.274;2022-09-09T00:25:43;95682.34;;;20.42
42119;BMP280;27783;42.782;23.274;2022-09-09T00:28:18;95679.50;;;20.37
42119;BMP280;27783;42.782;23.274;2022-09-09T00:30:44;95682.03;;;20.31
42119;BMP280;27783;42.782;23.274;2022-09-09T00:33:13;95682.38;;;20.21
42119;BMP280;27783;42.782;23.274;2022-09-09T00:36:09;95669.41;;;20.19
42119;BMP280;27783;42.782;23.274;2022-09-09T00:38:58;95679.25;;;20.22
42119;BMP280;27783;42.782;23.274;2022-09-09T00:55:55;95668.50;;;20.14
42119;BMP280;27783;42.782;23.274;2022-09-09T00:58:23;95676.78;;;20.07
42119;BMP280;27783;42.782;23.274;2022-09-09T01:01:04;95677.53;;;20.07
42119;BMP280;27783;42.782;23.274;2022-09-09T01:03:44;95671.44;;;20.07
42119;BMP280;27783;42.782;23.274;2022-09-09T01:06:17;95669.44;;;19.99
42119;BMP280;27783;42.782;23.274;2022-09-09T01:09:50;95675.41;;;20.02
42119;BMP280;27783;42.782;23.274;2022-09-09T01:12:01;95685.06;;;20.00
42119;BMP280;27783;42.782;23.274;2022-09-09T01:17:05;95685.31;;;19.72
42119;BMP280;27783;42.782;23.274;2022-09-09T01:22:24;95680.28;;;19.74
42119;BMP280;27783;42.782;23.274;2022-09-09T01:25:18;95684.25;;;19.70
42119;BMP280;27783;42.782;23.274;2022-09-09T01:27:47;95683.94;;;19.68
42119;BMP280;27783;42.782;23.274;2022-09-09T01:30:14;95683.94;;;19.68
42119;BMP280;27783;42.782;23.274;2022-09-09T01:32:41;95687.38;;;19.69
42119;BMP280;27783;42.782;23.274;2022-09-09T01:37:56;95702.91;;;19.61
42119;BMP280;27783;42.782;23.274;2022-09-09T01:40:21;95694.78;;;19.52
42119;BMP280;27783;42.782;23.274;2022-09-09T01:42:47;95699.66;;;19.66
42119;BMP280;27783;42.782;23.274;2022-09-09T01:45:13;95709.13;;;19.58
42119;BMP280;27783;42.782;23.274;2022-09-09T01:47:38;95706.13;;;19.56
42119;BMP280;27783;42.782;23.274;2022-09-09T01:50:04;95702.56;;;19.59
42119;BMP280;27783;42.782;23.274;2022-09-09T01:52:30;95701.72;;;19.62
42119;BMP280;27783;42.782;23.274;2022-09-09T01:54:57;95702.78;;;19.65
42119;BMP280;27783;42.782;23.274;2022-09-09T01:57:28;95703.66;;;19.62
42119;BMP280;27783;42.782;23.274;2022-09-09T02:00:12;95692.22;;;19.61
42119;BMP280;27783;42.782;23.274;2022-09-09T02:03:05;95680.31;;;19.62
42119;BMP280;27783;42.782;23.274;2022-09-09T02:05:43;95678.09;;;19.61
42119;BMP280;27783;42.782;23.274;2022-09-09T02:08:20;95695.13;;;19.54
42119;BMP280;27783;42.782;23.274;2022-09-09T02:11:13;95681.75;;;19.54
42119;BMP280;27783;42.782;23.274;2022-09-09T02:13:40;95683.97;;;19.56
42119;BMP280;27783;42.782;23.274;2022-09-09T02:18:51;95678.63;;;19.56
42119;BMP280;27783;42.782;23.274;2022-09-09T02:21:18;95685.59;;;19.53
42119;BMP280;27783;42.782;23.274;2022-09-09T02:23:45;95680.88;;;19.57
42119;BMP280;27783;42.782;23.274;2022-09-09T02:26:13;95690.06;;;19.56
42119;BMP280;27783;42.782;23.274;2022-09-09T02:28:45;95690.94;;;19.53
42119;BMP280;27783;42.782;23.274;2022-09-09T02:31:12;95698.34;;;19.50
42119;BMP280;27783;42.782;23.274;2022-09-09T02:33:47;95701.34;;;19.52
42119;BMP280;27783;42.782;23.274;2022-09-09T02:36:17;95699.22;;;19.35
42119;BMP280;27783;42.782;23.274;2022-09-09T02:38:46;95709.69;;;19.29
42119;BMP280;27783;42.782;23.274;2022-09-09T02:41:18;95704.44;;;19.38
42119;BMP280;27783;42.782;23.274;2022-09-09T02:43:45;95704.69;;;19.31
42119;BMP280;27783;42.782;23.274;2022-09-09T02:49:04;95708.22;;;19.28
42119;BMP280;27783;42.782;23.274;2022-09-09T02:52:07;95704.03;;;19.27
42119;BMP280;27783;42.782;23.274;2022-09-09T02:54:35;95705.53;;;19.28
42119;BMP280;27783;42.782;23.274;2022-09-09T02:59:34;95700.97;;;19.17
42119;BMP280;27783;42.782;23.274;2022-09-09T03:02:00;95702.78;;;19.19
42119;BMP280;27783;42.782;23.274;2022-09-09T03:04:26;95705.13;;;19.18
42119;BMP280;27783;42.782;23.274;2022-09-09T03:06:51;95705.38;;;19.11
42119;BMP280;27783;42.782;23.274;2022-09-09T03:09:17;95699.25;;;19.10
42119;BMP280;27783;42.782;23.274;2022-09-09T03:11:42;95701.94;;;19.10
42119;BMP280;27783;42.782;23.274;2022-09-09T03:14:07;95704.19;;;19.00
42119;BMP280;27783;42.782;23.274;2022-09-09T03:16:33;95710.84;;;18.95
42119;BMP280;27783;42.782;23.274;2022-09-09T03:19:00;95706.88;;;19.00
42119;BMP280;27783;42.782;23.274;2022-09-09T03:21:26;95703.88;;;18.98
42119;BMP280;27783;42.782;23.274;2022-09-09T03:23:51;95704.56;;;18.89
42119;BMP280;27783;42.782;23.274;2022-09-09T03:26:17;95705.94;;;18.82
42119;BMP280;27783;42.782;23.274;2022-09-09T03:28:42;95697.16;;;18.93
42119;BMP280;27783;42.782;23.274;2022-09-09T03:31:08;95699.22;;;18.89
42119;BMP280;27783;42.782;23.274;2022-09-09T03:33:38;95692.13;;;18.95
42119;BMP280;27783;42.782;23.274;2022-09-09T03:36:05;95704.44;;;18.93
42119;BMP280;27783;42.782;23.274;2022-09-09T03:38:31;95693.66;;;18.96
42119;BMP280;27783;42.782;23.274;2022-09-09T03:40:57;95698.34;;;18.92
42119;BMP280;27783;42.782;23.274;2022-09-09T03:43:24;95698.34;;;18.92
42119;BMP280;27783;42.782;23.274;2022-09-09T03:45:50;95695.97;;;18.94
42119;BMP280;27783;42.782;23.274;2022-09-09T03:48:17;95699.09;;;18.93
42119;BMP280;27783;42.782;23.274;2022-09-09T03:50:50;95707.94;;;18.90
42119;BMP280;27783;42.782;23.274;2022-09-09T03:53:18;95707.09;;;18.81
42119;BMP280;27783;42.782;23.274;2022-09-09T03:55:45;95715.44;;;18.83
42119;BMP280;27783;42.782;23.274;2022-09-09T03:58:12;95716.94;;;18.84
42119;BMP280;27783;42.782;23.274;2022-09-09T04:00:38;95717.25;;;18.73
42119;BMP280;27783;42.782;23.274;2022-09-09T04:03:10;95715.97;;;18.78
42119;BMP280;27783;42.782;23.274;2022-09-09T04:05:36;95707.44;;;18.83
42119;BMP280;27783;42.782;23.274;2022-09-09T04:08:08;95715.34;;;18.86
42119;BMP280;27783;42.782;23.274;2022-09-09T04:10:34;95712.78;;;18.83
42119;BMP280;27783;42.782;23.274;2022-09-09T04:13:03;95706.25;;;18.84
42119;BMP280;27783;42.782;23.274;2022-09-09T04:15:28;95705.06;;;18.85
42119;BMP280;27783;42.782;23.274;2022-09-09T04:17:54;95705.06;;;18.85
42119;BMP280;27783;42.782;23.274;2022-09-09T04:20:19;95714.38;;;18.80
42119;BMP280;27783;42.782;23.274;2022-09-09T04:22:44;95710.94;;;18.92
42119;BMP280;27783;42.782;23.274;2022-09-09T04:25:10;95714.03;;;18.90
42119;BMP280;27783;42.782;23.274;2022-09-09T04:27:35;95712.97;;;18.88
42119;BMP280;27783;42.782;23.274;2022-09-09T04:30:01;95714.38;;;18.92
42119;BMP280;27783;42.782;23.274;2022-09-09T04:32:26;95719.38;;;18.90
42119;BMP280;27783;42.782;23.274;2022-09-09T04:34:52;95715.03;;;18.96
42119;BMP280;27783;42.782;23.274;2022-09-09T04:37:17;95704.94;;;19.00
42119;BMP280;27783;42.782;23.274;2022-09-09T04:39:43;95704.19;;;19.00
42119;BMP280;27783;42.782;23.274;2022-09-09T04:42:08;95711.56;;;19.08
42119;BMP280;27783;42.782;23.274;2022-09-09T04:44:33;95711.69;;;19.04
42119;BMP280;27783;42.782;23.274;2022-09-09T04:46:59;95709.53;;;19.12
42119;BMP280;27783;42.782;23.274;2022-09-09T04:49:24;95715.31;;;19.10
42119;BMP280;27783;42.782;23.274;2022-09-09T04:51:50;95706.53;;;19.10
42119;BMP280;27783;42.782;23.274;2022-09-09T04:54:16;95701.53;;;19.12
42119;BMP280;27783;42.782;23.274;2022-09-09T04:56:41;95708.38;;;19.13
42119;BMP280;27783;42.782;23.274;2022-09-09T04:59:07;95709.72;;;19.17
42119;BMP280;27783;42.782;23.274;2022-09-09T05:01:34;95711.97;;;19.19
42119;BMP280;27783;42.782;23.274;2022-09-09T05:03:59;95718.28;;;19.24
42119;BMP280;27783;42.782;23.274;2022-09-09T05:06:25;95711.94;;;19.31
42119;BMP280;27783;42.782;23.274;2022-09-09T05:08:50;95692.25;;;19.37
42119;BMP280;27783;42.782;23.274;2022-09-09T05:11:24;95692.78;;;19.44
42119;BMP280;27783;42.782;23.274;2022-09-09T05:13:51;95705.69;;;19.46
42119;BMP280;27783;42.782;23.274;2022-09-09T05:16:17;95716.47;;;19.67
42119;BMP280;27783;42.782;23.274;2022-09-09T05:18:43;95710.13;;;19.73
42119;BMP280;27783;42.782;23.274;2022-09-09T05:21:13;95691.22;;;19.68
42119;BMP280;27783;42.782;23.274;2022-09-09T05:23:39;95690.59;;;19.64
42119;BMP280;27783;42.782;23.274;2022-09-09T05:26:06;95692.44;;;19.54
42119;BMP280;27783;42.782;23.274;2022-09-09T05:28:34;95696.34;;;19.62
42119;BMP280;27783;42.782;23.274;2022-09-09T05:31:09;95691.00;;;19.62
42119;BMP280;27783;42.782;23.274;2022-09-09T05:33:37;95693.09;;;19.58
42119;BMP280;27783;42.782;23.274;2022-09-09T05:36:10;95690.72;;;19.60
42119;BMP280;27783;42.782;23.274;2022-09-09T05:38:39;95688.16;;;19.57
42119;BMP280;27783;42.782;23.274;2022-09-09T05:41:05;95691.28;;;19.55
42119;BMP280;27783;42.782;23.274;2022-09-09T05:43:30;95692.22;;;19.61
42119;BMP280;27783;42.782;23.274;2022-09-09T05:46:08;95699.19;;;19.80
42119;BMP280;27783;42.782;23.274;2022-09-09T05:48:35;95699.63;;;19.78
42119;BMP280;27783;42.782;23.274;2022-09-09T05:51:03;95693.91;;;19.88
42119;BMP280;27783;42.782;23.274;2022-09-09T05:53:29;95697.44;;;19.86
42119;BMP280;27783;42.782;23.274;2022-09-09T05:56:04;95695.78;;;20.00
42119;BMP280;27783;42.782;23.274;2022-09-09T05:58:31;95707.16;;;20.13
42119;BMP280;27783;42.782;23.274;2022-09-09T06:01:08;95713.44;;;20.19
42119;BMP280;27783;42.782;23.274;2022-09-09T06:03:36;95713.41;;;20.31
42119;BMP280;27783;42.782;23.274;2022-09-09T06:06:04;95704.66;;;20.39
42119;BMP280;27783;42.782;23.274;2022-09-09T06:08:34;95702.91;;;20.45
42119;BMP280;27783;42.782;23.274;2022-09-09T06:11:19;95712.16;;;20.53
42119;BMP280;27783;42.782;23.274;2022-09-09T06:13:44;95719.94;;;20.59
42119;BMP280;27783;42.782;23.274;2022-09-09T06:16:12;95714.63;;;20.68
42119;BMP280;27783;42.782;23.274;2022-09-09T06:18:39;95717.03;;;20.75
42119;BMP280;27783;42.782;23.274;2022-09-09T06:21:07;95711.41;;;20.82
42119;BMP280;27783;42.782;23.274;2022-09-09T06:23:34;95705.16;;;20.85
42119;BMP280;27783;42.782;23.274;2022-09-09T06:26:08;95714.84;;;20.91
42119;BMP280;27783;42.782;23.274;2022-09-09T06:28:35;95717.25;;;20.98
42119;BMP280;27783;42.782;23.274;2022-09-09T06:31:03;95712.09;;;21.03
42119;BMP280;27783;42.782;23.274;2022-09-09T06:33:34;95707.94;;;21.11
42119;BMP280;27783;42.782;23.274;2022-09-09T06:36:05;95699.34;;;21.16
42119;BMP280;27783;42.782;23.274;2022-09-09T06:38:30;95693.66;;;21.14
42119;BMP280;27783;42.782;23.274;2022-09-09T06:40:58;95696.06;;;21.20
42119;BMP280;27783;42.782;23.274;2022-09-09T06:43:26;95688.66;;;21.33
42119;BMP280;27783;42.782;23.274;2022-09-09T06:45:59;95692.09;;;21.42
42119;BMP280;27783;42.782;23.274;2022-09-09T06:48:24;95692.09;;;21.60
42119;BMP280;27783;42.782;23.274;2022-09-09T06:51:04;95699.41;;;21.68
42119;BMP280;27783;42.782;23.274;2022-09-09T06:53:30;95711.03;;;21.74
42119;BMP280;27783;42.782;23.274;2022-09-09T06:56:02;95697.47;;;21.77
42119;BMP280;27783;42.782;23.274;2022-09-09T06:58:27;95710.47;;;21.79
42119;BMP280;27783;42.782;23.274;2022-09-09T07:01:03;95700.03;;;21.81
42119;BMP280;27783;42.782;23.274;2022-09-09T07:03:28;95702.13;;;21.86
42119;BMP280;27783;42.782;23.274;2022-09-09T07:05:55;95702.41;;;21.88
42119;BMP280;27783;42.782;23.274;2022-09-09T07:08:21;95706.31;;;21.95
42119;BMP280;27783;42.782;23.274;2022-09-09T07:10:46;95699.41;;;22.03
42119;BMP280;27783;42.782;23.274;2022-09-09T07:13:12;95692.13;;;22.12
42119;BMP280;27783;42.782;23.274;2022-09-09T07:15:41;95702.69;;;22.24
42119;BMP280;27783;42.782;23.274;2022-09-09T07:18:06;95692.81;;;22.30
42119;BMP280;27783;42.782;23.274;2022-09-09T07:20:32;95698.16;;;22.39
42119;BMP280;27783;42.782;23.274;2022-09-09T07:22:57;95689.22;;;22.51
42119;BMP280;27783;42.782;23.274;2022-09-09T07:25:24;95688.56;;;22.64
42119;BMP280;27783;42.782;23.274;2022-09-09T07:27:51;95686.59;;;22.73
42119;BMP280;27783;42.782;23.274;2022-09-09T07:30:17;95685.06;;;22.81
42119;BMP280;27783;42.782;23.274;2022-09-09T07:32:44;95686.53;;;22.91
42119;BMP280;27783;42.782;23.274;2022-09-09T07:35:10;95686.31;;;23.03
42119;BMP280;27783;42.782;23.274;2022-09-09T07:37:37;95678.00;;;23.15
42119;BMP280;27783;42.782;23.274;2022-09-09T07:40:03;95688.28;;;23.25
42119;BMP280;27783;42.782;23.274;2022-09-09T07:42:28;95683.16;;;23.36
42119;BMP280;27783;42.782;23.274;2022-09-09T07:44:54;95690.22;;;23.48
42119;BMP280;27783;42.782;23.274;2022-09-09T07:47:20;95692.88;;;23.56
42119;BMP280;27783;42.782;23.274;2022-09-09T07:49:46;95695.97;;;23.64
42119;BMP280;27783;42.782;23.274;2022-09-09T07:52:12;95698.88;;;23.74
42119;BMP280;27783;42.782;23.274;2022-09-09T07:54:37;95692.19;;;23.84
42119;BMP280;27783;42.782;23.274;2022-09-09T07:57:03;95682.59;;;23.92
42119;BMP280;27783;42.782;23.274;2022-09-09T07:59:29;95679.06;;;24.00
42119;BMP280;27783;42.782;23.274;2022-09-09T08:01:55;95680.94;;;24.08
42119;BMP280;27783;42.782;23.274;2022-09-09T08:04:22;95677.16;;;24.15
42119;BMP280;27783;42.782;23.274;2022-09-09T08:06:50;95686.06;;;24.21
42119;BMP280;27783;42.782;23.274;2022-09-09T08:09:16;95683.00;;;24.27
42119;BMP280;27783;42.782;23.274;2022-09-09T08:11:42;95680.78;;;24.40
42119;BMP280;27783;42.782;23.274;2022-09-09T08:14:08;95678.59;;;24.53
42119;BMP280;27783;42.782;23.274;2022-09-09T08:16:36;95679.31;;;24.67
42119;BMP280;27783;42.782;23.274;2022-09-09T08:19:03;95677.25;;;24.76
42119;BMP280;27783;42.782;23.274;2022-09-09T08:21:30;95674.84;;;24.78
42119;BMP280;27783;42.782;23.274;2022-09-09T08:23:57;95670.00;;;24.82
42119;BMP280;27783;42.782;23.274;2022-09-09T08:26:25;95677.41;;;24.87
42119;BMP280;27783;42.782;23.274;2022-09-09T08:28:54;95671.28;;;24.87
42119;BMP280;27783;42.782;23.274;2022-09-09T08:31:24;95670.63;;;24.91
42119;BMP280;27783;42.782;23.274;2022-09-09T08:33:50;95657.69;;;24.95
42119;BMP280;27783;42.782;23.274;2022-09-09T08:36:18;95665.78;;;24.95
42119;BMP280;27783;42.782;23.274;2022-09-09T08:38:50;95663.91;;;25.01
42119;BMP280;27783;42.782;23.274;2022-09-09T08:43:48;95654.38;;;25.20
42119;BMP280;27783;42.782;23.274;2022-09-09T08:46:26;95657.06;;;25.20
42119;BMP280;27783;42.782;23.274;2022-09-09T08:49:04;95653.22;;;25.26
42119;BMP280;27783;42.782;23.274;2022-09-09T08:51:31;95652.56;;;25.31
42119;BMP280;27783;42.782;23.274;2022-09-09T08:54:00;95650.69;;;25.37
42119;BMP280;27783;42.782;23.274;2022-09-09T08:56:27;95647.31;;;25.41
42119;BMP280;27783;42.782;23.274;2022-09-09T08:58:55;95652.56;;;25.50
42119;BMP280;27783;42.782;23.274;2022-09-09T09:07:31;95656.06;;;25.75
42119;BMP280;27783;42.782;23.274;2022-09-09T09:10:21;95654.19;;;25.81
42119;BMP280;27783;42.782;23.274;2022-09-09T09:12:51;95654.53;;;25.89
42119;BMP280;27783;42.782;23.274;2022-09-09T09:15:20;95654.53;;;25.89
42119;BMP280;27783;42.782;23.274;2022-09-09T09:17:46;95641.28;;;25.91
42119;BMP280;27783;42.782;23.274;2022-09-09T09:20:15;95652.09;;;25.91
42119;BMP280;27783;42.782;23.274;2022-09-09T09:22:49;95642.75;;;25.91
42119;BMP280;27783;42.782;23.274;2022-09-09T09:25:35;95645.22;;;25.90
42119;BMP280;27783;42.782;23.274;2022-09-09T09:28:17;95646.28;;;25.97
42119;BMP280;27783;42.782;23.274;2022-09-09T09:30:55;95639.19;;;26.00
42119;BMP280;27783;42.782;23.274;2022-09-09T09:36:07;95629.69;;;26.09
42119;BMP280;27783;42.782;23.274;2022-09-09T09:38:34;95631.91;;;26.11
42119;BMP280;27783;42.782;23.274;2022-09-09T09:41:00;95641.25;;;26.10
42119;BMP280;27783;42.782;23.274;2022-09-09T09:45:51;95634.41;;;25.90
42119;BMP280;27783;42.782;23.274;2022-09-09T09:48:17;95631.56;;;25.79
42119;BMP280;27783;42.782;23.274;2022-09-09T09:50:54;95623.09;;;25.72
42119;BMP280;27783;42.782;23.274;2022-09-09T09:56:04;95622.41;;;25.71
42119;BMP280;27783;42.782;23.274;2022-09-09T09:58:32;95620.16;;;25.70
42119;BMP280;27783;42.782;23.274;2022-09-09T10:00:59;95623.31;;;25.68
42119;BMP280;27783;42.782;23.274;2022-09-09T10:03:33;95617.91;;;25.68
42119;BMP280;27783;42.782;23.274;2022-09-09T10:06:03;95623.72;;;25.61
42119;BMP280;27783;42.782;23.274;2022-09-09T10:08:29;95629.81;;;25.57
42119;BMP280;27783;42.782;23.274;2022-09-09T10:16:34;95632.25;;;25.35
42119;BMP280;27783;42.782;23.274;2022-09-09T10:19:12;95635.88;;;25.32
42119;BMP280;27783;42.782;23.274;2022-09-09T10:29:52;95634.13;;;25.29
42119;BMP280;27783;42.782;23.274;2022-09-09T10:32:48;95630.28;;;25.36
42119;BMP280;27783;42.782;23.274;2022-09-09T10:38:13;95641.84;;;25.36
42119;BMP280;27783;42.782;23.274;2022-09-09T10:45:45;95644.13;;;25.43
42119;BMP280;27783;42.782;23.274;2022-09-09T10:48:31;95644.53;;;25.56
42119;BMP280;27783;42.782;23.274;2022-09-09T10:51:14;95646.88;;;25.48
42119;BMP280;27783;42.782;23.274;2022-09-09T10:56:19;95635.38;;;25.48
42119;BMP280;27783;42.782;23.274;2022-09-09T10:59:00;95636.38;;;25.50
42119;BMP280;27783;42.782;23.274;2022-09-09T11:01:31;95633.28;;;25.57
42119;BMP280;27783;42.782;23.274;2022-09-09T11:04:03;95635.81;;;25.66
42119;BMP280;27783;42.782;23.274;2022-09-09T11:06:42;95632.50;;;25.76
42119;BMP280;27783;42.782;23.274;2022-09-09T11:09:16;95630.09;;;25.78
42119;BMP280;27783;42.782;23.274;2022-09-09T11:11:51;95630.81;;;25.78
42119;BMP280;27783;42.782;23.274;2022-09-09T11:14:23;95625.88;;;25.77
42119;BMP280;27783;42.782;23.274;2022-09-09T11:17:04;95626.72;;;25.83
42119;BMP280;27783;42.782;23.274;2022-09-09T11:19:41;95616.50;;;25.92
42119;BMP280;27783;42.782;23.274;2022-09-09T11:25:03;95611.03;;;26.11
42119;BMP280;27783;42.782;23.274;2022-09-09T11:27:46;95605.91;;;26.13
42119;BMP280;27783;42.782;23.274;2022-09-09T11:35:40;95589.28;;;26.25
42119;BMP280;27783;42.782;23.274;2022-09-09T11:40:46;95560.53;;;26.23
42119;BMP280;27783;42.782;23.274;2022-09-09T11:43:23;95560.03;;;26.24
42119;BMP280;27783;42.782;23.274;2022-09-09T11:45:57;95550.94;;;26.22
42119;BMP280;27783;42.782;23.274;2022-09-09T11:49:03;95552.44;;;26.28
42119;BMP280;27783;42.782;23.274;2022-09-09T11:51:30;95554.94;;;26.31
42119;BMP280;27783;42.782;23.274;2022-09-09T11:54:46;95549.19;;;26.43
42119;BMP280;27783;42.782;23.274;2022-09-09T11:56:46;95542.34;;;26.53
42119;BMP280;27783;42.782;23.274;2022-09-09T11:59:22;95551.25;;;26.64
42119;BMP280;27783;42.782;23.274;2022-09-09T12:01:59;95549.84;;;26.74
42119;BMP280;27783;42.782;23.274;2022-09-09T12:04:36;95537.13;;;26.80
42119;BMP280;27783;42.782;23.274;2022-09-09T12:09:55;95529.88;;;27.02
42119;BMP280;27783;42.782;23.274;2022-09-09T12:17:41;95532.84;;;27.09
42119;BMP280;27783;42.782;23.274;2022-09-09T12:28:18;95527.09;;;27.48
42119;BMP280;27783;42.782;23.274;2022-09-09T12:33:19;95514.59;;;27.56
42119;BMP280;27783;42.782;23.274;2022-09-09T12:35:50;95505.72;;;27.60
42119;BMP280;27783;42.782;23.274;2022-09-09T12:38:38;95501.31;;;27.68
42119;BMP280;27783;42.782;23.274;2022-09-09T12:41:04;95496.88;;;27.76
42119;BMP280;27783;42.782;23.274;2022-09-09T12:43:30;95492.94;;;27.77
42119;BMP280;27783;42.782;23.274;2022-09-09T12:46:08;95494.16;;;27.87
42119;BMP280;27783;42.782;23.274;2022-09-09T12:48:40;95486.28;;;27.99
42119;BMP280;27783;42.782;23.274;2022-09-09T12:51:31;95486.06;;;27.97
42119;BMP280;27783;42.782;23.274;2022-09-09T12:53:58;95482.13;;;27.98
42119;BMP280;27783;42.782;23.274;2022-09-09T12:56:27;95480.38;;;28.01
42119;BMP280;27783;42.782;23.274;2022-09-09T12:58:55;95493.47;;;28.34
42119;BMP280;27783;42.782;23.274;2022-09-09T13:03:50;95468.69;;;28.86
42119;BMP280;27783;42.782;23.274;2022-09-09T13:08:53;95477.91;;;29.27
42119;BMP280;27783;42.782;23.274;2022-09-09T13:11:26;95479.00;;;29.53
42119;BMP280;27783;42.782;23.274;2022-09-09T13:13:55;95472.69;;;29.74
42119;BMP280;27783;42.782;23.274;2022-09-09T13:16:22;95473.13;;;29.83
42119;BMP280;27783;42.782;23.274;2022-09-09T13:18:48;95475.03;;;29.94
42119;BMP280;27783;42.782;23.274;2022-09-09T13:21:14;95457.00;;;29.96
42119;BMP280;27783;42.782;23.274;2022-09-09T13:23:40;95464.03;;;29.81
42119;BMP280;27783;42.782;23.274;2022-09-09T13:26:23;95457.63;;;29.78
42119;BMP280;27783;42.782;23.274;2022-09-09T13:28:50;95456.00;;;29.60
42119;BMP280;27783;42.782;23.274;2022-09-09T13:31:29;95459.81;;;29.41
42119;BMP280;27783;42.782;23.274;2022-09-09T13:33:55;95463.75;;;28.90
42119;BMP280;27783;42.782;23.274;2022-09-09T13:36:33;95447.31;;;28.61
42119;BMP280;27783;42.782;23.274;2022-09-09T13:39:01;95454.72;;;28.50
42119;BMP280;27783;42.782;23.274;2022-09-09T13:41:33;95441.94;;;28.18
42119;BMP280;27783;42.782;23.274;2022-09-09T13:44:01;95440.72;;;28.03
42119;BMP280;27783;42.782;23.274;2022-09-09T13:49:00;95446.13;;;27.92
42119;BMP280;27783;42.782;23.274;2022-09-09T13:51:38;95439.25;;;27.92
42119;BMP280;27783;42.782;23.274;2022-09-09T13:54:09;95443.41;;;27.92
42119;BMP280;27783;42.782;23.274;2022-09-09T13:56:35;95439.00;;;28.00
42119;BMP280;27783;42.782;23.274;2022-09-09T13:59:02;95444.41;;;28.16
42119;BMP280;27783;42.782;23.274;2022-09-09T14:01:28;95440.44;;;28.44
42119;BMP280;27783;42.782;23.274;2022-09-09T14:03:54;95434.75;;;28.42
42119;BMP280;27783;42.782;23.274;2022-09-09T14:06:20;95428.59;;;28.36
42119;BMP280;27783;42.782;23.274;2022-09-09T14:08:50;95434.53;;;28.40
42119;BMP280;27783;42.782;23.274;2022-09-09T14:11:16;95430.03;;;28.59
42119;BMP280;27783;42.782;23.274;2022-09-09T14:13:42;95436.66;;;28.79
42119;BMP280;27783;42.782;23.274;2022-09-09T14:16:07;95435.91;;;28.84
42119;BMP280;27783;42.782;23.274;2022-09-09T14:18:33;95427.56;;;28.60
42119;BMP280;27783;42.782;23.274;2022-09-09T14:20:59;95419.22;;;28.42
42119;BMP280;27783;42.782;23.274;2022-09-09T14:23:25;95421.91;;;28.48
42119;BMP280;27783;42.782;23.274;2022-09-09T14:25:51;95428.38;;;28.34
42119;BMP280;27783;42.782;23.274;2022-09-09T14:28:17;95405.19;;;28.33
42119;BMP280;27783;42.782;23.274;2022-09-09T14:30:43;95415.25;;;28.49
42119;BMP280;27783;42.782;23.274;2022-09-09T14:33:11;95418.91;;;29.23
42119;BMP280;27783;42.782;23.274;2022-09-09T14:35:37;95423.34;;;29.65
42119;BMP280;27783;42.782;23.274;2022-09-09T14:38:04;95418.78;;;31.23
42119;BMP280;27783;42.782;23.274;2022-09-09T14:40:29;95406.66;;;32.34
42119;BMP280;27783;42.782;23.274;2022-09-09T14:42:54;95407.25;;;33.15
42119;BMP280;27783;42.782;23.274;2022-09-09T14:45:22;95397.75;;;33.74
42119;BMP280;27783;42.782;23.274;2022-09-09T14:47:50;95405.34;;;33.68
42119;BMP280;27783;42.782;23.274;2022-09-09T14:50:16;95391.84;;;34.23
42119;BMP280;27783;42.782;23.274;2022-09-09T14:52:41;95393.19;;;33.57
42119;BMP280;27783;42.782;23.274;2022-09-09T14:55:08;95408.13;;;32.47
42119;BMP280;27783;42.782;23.274;2022-09-09T14:57:34;95397.25;;;31.74
42119;BMP280;27783;42.782;23.274;2022-09-09T15:00:02;95393.88;;;31.50
42119;BMP280;27783;42.782;23.274;2022-09-09T15:02:27;95399.78;;;31.18
42119;BMP280;27783;42.782;23.274;2022-09-09T15:04:55;95412.94;;;30.73
42119;BMP280;27783;42.782;23.274;2022-09-09T15:07:22;95415.22;;;30.22
42119;BMP280;27783;42.782;23.274;2022-09-09T15:09:48;95415.13;;;30.04
42119;BMP280;27783;42.782;23.274;2022-09-09T15:12:15;95413.63;;;29.75
42119;BMP280;27783;42.782;23.274;2022-09-09T15:14:40;95421.44;;;29.55
42119;BMP280;27783;42.782;23.274;2022-09-09T15:17:05;95417.63;;;29.34
42119;BMP280;27783;42.782;23.274;2022-09-09T15:19:31;95424.06;;;29.37
42119;BMP280;27783;42.782;23.274;2022-09-09T15:21:57;95422.69;;;29.09
42119;BMP280;27783;42.782;23.274;2022-09-09T15:24:24;95423.38;;;29.15
42119;BMP280;27783;42.782;23.274;2022-09-09T15:26:50;95423.19;;;29.08
42119;BMP280;27783;42.782;23.274;2022-09-09T15:29:16;95412.13;;;28.95
42119;BMP280;27783;42.782;23.274;2022-09-09T15:31:41;95421.84;;;28.75
42119;BMP280;27783;42.782;23.274;2022-09-09T15:34:07;95415.94;;;28.65
42119;BMP280;27783;42.782;23.274;2022-09-09T15:36:33;95421.69;;;28.46
42119;BMP280;27783;42.782;23.274;2022-09-09T15:39:00;95417.28;;;28.22
42119;BMP280;27783;42.782;23.274;2022-09-09T15:41:26;95418.03;;;28.22
42119;BMP280;27783;42.782;23.274;2022-09-09T15:43:54;95415.59;;;28.13
42119;BMP280;27783;42.782;23.274;2022-09-09T15:46:51;95414.84;;;27.97
42119;BMP280;27783;42.782;23.274;2022-09-09T15:49:21;95416.56;;;27.84
42119;BMP280;27783;42.782;23.274;2022-09-09T15:51:55;95407.22;;;27.74
42119;BMP280;27783;42.782;23.274;2022-09-09T15:54:23;95411.66;;;27.66
42119;BMP280;27783;42.782;23.274;2022-09-09T15:56:57;95410.16;;;27.60
42119;BMP280;27783;42.782;23.274;2022-09-09T15:59:24;95409.66;;;27.51
42119;BMP280;27783;42.782;23.274;2022-09-09T16:01:50;95396.84;;;27.41
42119;BMP280;27783;42.782;23.274;2022-09-09T16:04:20;95403.25;;;27.32
42119;BMP280;27783;42.782;23.274;2022-09-09T16:06:52;95409.13;;;27.25